sensor_id;sensor_type;location;lat;lon;timestamp;P1;durP1;ratioP1;P2;durP2;ratioP2
59306;SDS011;47983;53.016;-2.260;2023-04-19T00:01:37;19.35;;;7.85;;
59306;SDS011;47983;53.016;-2.260;2023-04-19T00:04:05;18.88;;;7.72;;
59306;SDS011;47983;53.016;-2.260;2023-04-19T00:06:34;21.23;;;7.93;;
59306;SDS011;47983;53.016;-2.260;2023-04-19T00:09:02;19.48;;;8.18;;
59306;SDS011;47983;53.016;-2.260;2023-04-19T00:11:30;22.75;;;9.25;;
59306;SDS011;47983;53.016;-2.260;2023-04-19T00:13:57;16.45;;;7.85;;
59306;SDS011;47983;53.016;-2.260;2023-04-19T00:16:28;24.38;;;8.75;;
59306;SDS011;47983;53.016;-2.260;2023-04-19T00:18:56;20.63;;;8.80;;
59306;SDS011;47983;53.016;-2.260;2023-04-19T00:21:29;15.98;;;8.05;;
59306;SDS011;47983;53.016;-2.260;2023-04-19T00:23:57;23.30;;;9.63;;
59306;SDS011;47983;53.016;-2.260;2023-04-19T00:26:25;17.55;;;8.25;;
59306;SDS011;47983;53.016;-2.260;2023-04-19T00:28:53;22.50;;;9.30;;
59306;SDS011;47983;53.016;-2.260;2023-04-19T00:31:21;20.63;;;8.93;;
59306;SDS011;47983;53.016;-2.260;2023-04-19T00:33:49;28.55;;;9.55;;
59306;SDS011;47983;53.016;-2.260;2023-04-19T00:36:17;15.35;;;8.65;;
59306;SDS011;47983;53.016;-2.260;2023-04-19T00:38:46;19.35;;;8.23;;
59306;SDS011;47983;53.016;-2.260;2023-04-19T00:41:14;21.08;;;9.10;;
59306;SDS011;47983;53.016;-2.260;2023-04-19T00:43:42;21.70;;;9.45;;
59306;SDS011;47983;53.016;-2.260;2023-04-19T00:46:09;21.98;;;9.05;;
59306;SDS011;47983;53.016;-2.260;2023-04-19T00:48:37;22.05;;;8.73;;
59306;SDS011;47983;53.016;-2.260;2023-04-19T00:51:05;20.95;;;8.50;;
59306;SDS011;47983;53.016;-2.260;2023-04-19T00:53:33;16.77;;;9.63;;
59306;SDS011;47983;53.016;-2.260;2023-04-19T00:56:01;21.15;;;9.68;;
59306;SDS011;47983;53.016;-2.260;2023-04-19T00:58:31;19.75;;;8.70;;
59306;SDS011;47983;53.016;-2.260;2023-04-19T01:00:59;18.40;;;8.50;;
59306;SDS011;47983;53.016;-2.260;2023-04-19T01:03:26;14.80;;;9.02;;
59306;SDS011;47983;53.016;-2.260;2023-04-19T01:05:56;20.48;;;8.90;;
59306;SDS011;47983;53.016;-2.260;2023-04-19T01:08:24;24.35;;;9.77;;
59306;SDS011;47983;53.016;-2.260;2023-04-19T01:10:53;21.15;;;9.02;;
59306;SDS011;47983;53.016;-2.260;2023-04-19T01:13:20;18.08;;;8.48;;
59306;SDS011;47983;53.016;-2.260;2023-04-19T01:15:48;21.73;;;9.27;;
59306;SDS011;47983;53.016;-2.260;2023-04-19T01:18:19;20.70;;;8.73;;
59306;SDS011;47983;53.016;-2.260;2023-04-19T01:20:48;18.67;;;8.63;;
59306;SDS011;47983;53.016;-2.260;2023-04-19T01:23:16;20.60;;;8.30;;
59306;SDS011;47983;53.016;-2.260;2023-04-19T01:25:44;17.85;;;8.10;;
59306;SDS011;47983;53.016;-2.260;2023-04-19T01:28:12;23.08;;;8.82;;
59306;SDS011;47983;53.016;-2.260;2023-04-19T01:30:40;23.27;;;8.82;;
59306;SDS011;47983;53.016;-2.260;2023-04-19T01:33:07;22.05;;;8.77;;
59306;SDS011;47983;53.016;-2.260;2023-04-19T01:35:35;18.80;;;8.13;;
59306;SDS011;47983;53.016;-2.260;2023-04-19T01:38:03;20.60;;;8.55;;
59306;SDS011;47983;53.016;-2.260;2023-04-19T01:40:31;19.73;;;7.40;;
59306;SDS011;47983;53.016;-2.260;2023-04-19T01:42:59;20.58;;;7.88;;
59306;SDS011;47983;53.016;-2.260;2023-04-19T01:45:27;19.77;;;8.57;;
59306;SDS011;47983;53.016;-2.260;2023-04-19T01:47:54;16.23;;;8.80;;
59306;SDS011;47983;53.016;-2.260;2023-04-19T01:50:23;22.38;;;8.23;;
59306;SDS011;47983;53.016;-2.260;2023-04-19T01:52:50;15.07;;;7.30;;
59306;SDS011;47983;53.016;-2.260;2023-04-19T01:55:18;27.67;;;8.68;;
59306;SDS011;47983;53.016;-2.260;2023-04-19T01:57:45;29.45;;;9.27;;
59306;SDS011;47983;53.016;-2.260;2023-04-19T02:00:13;18.65;;;7.70;;
59306;SDS011;47983;53.016;-2.260;2023-04-19T02:02:41;20.75;;;9.45;;
59306;SDS011;47983;53.016;-2.260;2023-04-19T02:05:09;23.77;;;9.43;;
59306;SDS011;47983;53.016;-2.260;2023-04-19T02:07:37;17.55;;;7.65;;
59306;SDS011;47983;53.016;-2.260;2023-04-19T02:10:05;21.42;;;8.23;;
59306;SDS011;47983;53.016;-2.260;2023-04-19T02:12:35;15.57;;;7.53;;
59306;SDS011;47983;53.016;-2.260;2023-04-19T02:15:03;22.00;;;9.48;;
59306;SDS011;47983;53.016;-2.260;2023-04-19T02:17:33;22.02;;;9.00;;
59306;SDS011;47983;53.016;-2.260;2023-04-19T02:20:02;20.40;;;8.50;;
59306;SDS011;47983;53.016;-2.260;2023-04-19T02:22:30;19.60;;;8.57;;
59306;SDS011;47983;53.016;-2.260;2023-04-19T02:24:58;22.55;;;7.75;;
59306;SDS011;47983;53.016;-2.260;2023-04-19T02:27:31;22.02;;;8.75;;
59306;SDS011;47983;53.016;-2.260;2023-04-19T02:29:59;22.80;;;8.95;;
59306;SDS011;47983;53.016;-2.260;2023-04-19T02:32:27;18.98;;;7.60;;
59306;SDS011;47983;53.016;-2.260;2023-04-19T02:34:54;20.98;;;8.00;;
59306;SDS011;47983;53.016;-2.260;2023-04-19T02:37:22;21.38;;;7.90;;
59306;SDS011;47983;53.016;-2.260;2023-04-19T02:39:50;23.90;;;8.05;;
59306;SDS011;47983;53.016;-2.260;2023-04-19T02:42:17;25.38;;;9.77;;
59306;SDS011;47983;53.016;-2.260;2023-04-19T02:44:45;19.48;;;9.55;;
59306;SDS011;47983;53.016;-2.260;2023-04-19T02:47:13;19.90;;;9.30;;
59306;SDS011;47983;53.016;-2.260;2023-04-19T02:49:41;18.48;;;9.65;;
59306;SDS011;47983;53.016;-2.260;2023-04-19T02:52:09;23.63;;;9.95;;
59306;SDS011;47983;53.016;-2.260;2023-04-19T02:54:39;19.33;;;8.45;;
59306;SDS011;47983;53.016;-2.260;2023-04-19T02:57:07;20.83;;;9.50;;
59306;SDS011;47983;53.016;-2.260;2023-04-19T02:59:35;26.70;;;9.45;;
59306;SDS011;47983;53.016;-2.260;2023-04-19T03:02:04;25.08;;;9.90;;
59306;SDS011;47983;53.016;-2.260;2023-04-19T03:04:31;23.60;;;9.63;;
59306;SDS011;47983;53.016;-2.260;2023-04-19T03:07:00;23.60;;;9.70;;
59306;SDS011;47983;53.016;-2.260;2023-04-19T03:09:28;22.77;;;9.32;;
59306;SDS011;47983;53.016;-2.260;2023-04-19T03:11:57;22.30;;;9.70;;
59306;SDS011;47983;53.016;-2.260;2023-04-19T03:14:24;25.02;;;11.20;;
59306;SDS011;47983;53.016;-2.260;2023-04-19T03:16:52;28.40;;;9.82;;
59306;SDS011;47983;53.016;-2.260;2023-04-19T03:19:20;22.65;;;10.18;;
59306;SDS011;47983;53.016;-2.260;2023-04-19T03:21:50;24.60;;;9.93;;
59306;SDS011;47983;53.016;-2.260;2023-04-19T03:24:26;24.02;;;9.60;;
59306;SDS011;47983;53.016;-2.260;2023-04-19T03:27:06;25.65;;;9.93;;
59306;SDS011;47983;53.016;-2.260;2023-04-19T03:29:34;23.27;;;9.60;;
59306;SDS011;47983;53.016;-2.260;2023-04-19T03:32:06;21.02;;;10.40;;
59306;SDS011;47983;53.016;-2.260;2023-04-19T03:34:33;25.95;;;11.20;;
59306;SDS011;47983;53.016;-2.260;2023-04-19T03:37:01;28.85;;;10.82;;
59306;SDS011;47983;53.016;-2.260;2023-04-19T03:39:30;35.42;;;10.52;;
59306;SDS011;47983;53.016;-2.260;2023-04-19T03:42:02;23.10;;;8.85;;
59306;SDS011;47983;53.016;-2.260;2023-04-19T03:44:56;31.15;;;11.50;;
59306;SDS011;47983;53.016;-2.260;2023-04-19T03:47:28;30.52;;;11.93;;
59306;SDS011;47983;53.016;-2.260;2023-04-19T03:49:57;28.60;;;11.02;;
59306;SDS011;47983;53.016;-2.260;2023-04-19T03:52:26;23.10;;;11.10;;
59306;SDS011;47983;53.016;-2.260;2023-04-19T03:54:55;23.08;;;10.15;;
59306;SDS011;47983;53.016;-2.260;2023-04-19T03:57:31;31.30;;;13.23;;
59306;SDS011;47983;53.016;-2.260;2023-04-19T04:00:01;24.60;;;10.10;;
59306;SDS011;47983;53.016;-2.260;2023-04-19T04:02:39;26.10;;;10.57;;
59306;SDS011;47983;53.016;-2.260;2023-04-19T04:05:08;30.63;;;10.93;;
59306;SDS011;47983;53.016;-2.260;2023-04-19T04:07:39;23.13;;;10.60;;
59306;SDS011;47983;53.016;-2.260;2023-04-19T04:10:07;24.33;;;10.88;;
59306;SDS011;47983;53.016;-2.260;2023-04-19T04:12:41;28.10;;;10.75;;
59306;SDS011;47983;53.016;-2.260;2023-04-19T04:15:12;19.58;;;10.63;;
59306;SDS011;47983;53.016;-2.260;2023-04-19T04:17:45;28.42;;;10.82;;
59306;SDS011;47983;53.016;-2.260;2023-04-19T04:20:14;26.42;;;11.10;;
59306;SDS011;47983;53.016;-2.260;2023-04-19T04:22:42;23.20;;;10.57;;
59306;SDS011;47983;53.016;-2.260;2023-04-19T04:25:14;22.23;;;11.25;;
59306;SDS011;47983;53.016;-2.260;2023-04-19T04:27:42;23.95;;;10.93;;
59306;SDS011;47983;53.016;-2.260;2023-04-19T04:30:14;38.17;;;12.52;;
59306;SDS011;47983;53.016;-2.260;2023-04-19T04:32:42;27.33;;;10.95;;
59306;SDS011;47983;53.016;-2.260;2023-04-19T04:35:11;25.88;;;10.85;;
59306;SDS011;47983;53.016;-2.260;2023-04-19T04:37:44;26.25;;;11.23;;
59306;SDS011;47983;53.016;-2.260;2023-04-19T04:40:13;27.75;;;11.23;;
59306;SDS011;47983;53.016;-2.260;2023-04-19T04:42:41;32.60;;;11.90;;
59306;SDS011;47983;53.016;-2.260;2023-04-19T04:45:11;28.38;;;12.15;;
59306;SDS011;47983;53.016;-2.260;2023-04-19T04:47:42;21.52;;;11.40;;
59306;SDS011;47983;53.016;-2.260;2023-04-19T04:50:14;22.00;;;11.25;;
59306;SDS011;47983;53.016;-2.260;2023-04-19T04:52:42;24.83;;;11.20;;
59306;SDS011;47983;53.016;-2.260;2023-04-19T04:55:15;28.02;;;11.93;;
59306;SDS011;47983;53.016;-2.260;2023-04-19T04:57:43;28.83;;;11.60;;
59306;SDS011;47983;53.016;-2.260;2023-04-19T05:00:21;26.35;;;12.93;;
59306;SDS011;47983;53.016;-2.260;2023-04-19T05:03:09;24.08;;;11.52;;
59306;SDS011;47983;53.016;-2.260;2023-04-19T05:05:45;27.00;;;12.13;;
59306;SDS011;47983;53.016;-2.260;2023-04-19T05:08:13;25.35;;;11.35;;
59306;SDS011;47983;53.016;-2.260;2023-04-19T05:10:43;31.00;;;12.13;;
59306;SDS011;47983;53.016;-2.260;2023-04-19T05:13:14;25.92;;;11.75;;
59306;SDS011;47983;53.016;-2.260;2023-04-19T05:15:42;28.75;;;12.55;;
59306;SDS011;47983;53.016;-2.260;2023-04-19T05:18:10;24.27;;;12.35;;
59306;SDS011;47983;53.016;-2.260;2023-04-19T05:20:38;21.33;;;11.38;;
59306;SDS011;47983;53.016;-2.260;2023-04-19T05:23:15;28.38;;;11.75;;
59306;SDS011;47983;53.016;-2.260;2023-04-19T05:25:43;27.33;;;11.18;;
59306;SDS011;47983;53.016;-2.260;2023-04-19T05:28:11;19.27;;;11.95;;
59306;SDS011;47983;53.016;-2.260;2023-04-19T05:30:46;28.42;;;11.85;;
59306;SDS011;47983;53.016;-2.260;2023-04-19T05:33:14;27.20;;;11.57;;
59306;SDS011;47983;53.016;-2.260;2023-04-19T05:35:42;29.73;;;12.48;;
59306;SDS011;47983;53.016;-2.260;2023-04-19T05:38:10;26.63;;;12.85;;
59306;SDS011;47983;53.016;-2.260;2023-04-19T05:40:38;33.08;;;12.38;;
59306;SDS011;47983;53.016;-2.260;2023-04-19T05:43:06;25.90;;;12.45;;
59306;SDS011;47983;53.016;-2.260;2023-04-19T05:45:34;28.20;;;11.80;;
59306;SDS011;47983;53.016;-2.260;2023-04-19T05:48:01;29.85;;;12.77;;
59306;SDS011;47983;53.016;-2.260;2023-04-19T05:50:47;24.40;;;11.57;;
59306;SDS011;47983;53.016;-2.260;2023-04-19T05:53:39;26.83;;;12.27;;
59306;SDS011;47983;53.016;-2.260;2023-04-19T05:56:07;23.08;;;11.32;;
59306;SDS011;47983;53.016;-2.260;2023-04-19T05:58:35;30.02;;;12.10;;
59306;SDS011;47983;53.016;-2.260;2023-04-19T06:01:02;31.25;;;12.32;;
59306;SDS011;47983;53.016;-2.260;2023-04-19T06:03:30;29.42;;;13.63;;
59306;SDS011;47983;53.016;-2.260;2023-04-19T06:06:00;22.80;;;10.27;;
59306;SDS011;47983;53.016;-2.260;2023-04-19T06:08:28;25.10;;;12.48;;
59306;SDS011;47983;53.016;-2.260;2023-04-19T06:10:56;30.17;;;11.98;;
59306;SDS011;47983;53.016;-2.260;2023-04-19T06:13:34;27.05;;;12.45;;
59306;SDS011;47983;53.016;-2.260;2023-04-19T06:16:02;28.80;;;11.82;;
59306;SDS011;47983;53.016;-2.260;2023-04-19T06:18:30;22.60;;;11.55;;
59306;SDS011;47983;53.016;-2.260;2023-04-19T06:21:01;32.83;;;12.95;;
59306;SDS011;47983;53.016;-2.260;2023-04-19T06:23:28;34.45;;;11.48;;
59306;SDS011;47983;53.016;-2.260;2023-04-19T06:25:56;25.67;;;11.82;;
59306;SDS011;47983;53.016;-2.260;2023-04-19T06:28:25;31.60;;;13.20;;
59306;SDS011;47983;53.016;-2.260;2023-04-19T06:30:53;28.08;;;11.80;;
59306;SDS011;47983;53.016;-2.260;2023-04-19T06:33:21;26.90;;;13.60;;
59306;SDS011;47983;53.016;-2.260;2023-04-19T06:35:48;30.25;;;12.65;;
59306;SDS011;47983;53.016;-2.260;2023-04-19T06:38:16;32.80;;;12.35;;
59306;SDS011;47983;53.016;-2.260;2023-04-19T06:40:44;35.50;;;12.45;;
59306;SDS011;47983;53.016;-2.260;2023-04-19T06:43:12;26.50;;;11.63;;
59306;SDS011;47983;53.016;-2.260;2023-04-19T06:45:39;31.63;;;13.13;;
59306;SDS011;47983;53.016;-2.260;2023-04-19T06:48:07;32.15;;;13.20;;
59306;SDS011;47983;53.016;-2.260;2023-04-19T06:50:35;35.10;;;13.15;;
59306;SDS011;47983;53.016;-2.260;2023-04-19T06:53:03;28.05;;;13.07;;
59306;SDS011;47983;53.016;-2.260;2023-04-19T06:55:31;31.95;;;13.77;;
59306;SDS011;47983;53.016;-2.260;2023-04-19T06:57:58;32.75;;;14.55;;
59306;SDS011;47983;53.016;-2.260;2023-04-19T07:00:26;30.83;;;13.60;;
59306;SDS011;47983;53.016;-2.260;2023-04-19T07:02:55;29.95;;;13.05;;
59306;SDS011;47983;53.016;-2.260;2023-04-19T07:07:53;45.58;;;14.60;;
59306;SDS011;47983;53.016;-2.260;2023-04-19T07:10:21;26.42;;;13.38;;
59306;SDS011;47983;53.016;-2.260;2023-04-19T07:12:48;27.10;;;14.18;;
59306;SDS011;47983;53.016;-2.260;2023-04-19T07:15:17;28.70;;;14.07;;
59306;SDS011;47983;53.016;-2.260;2023-04-19T07:17:44;35.97;;;13.45;;
59306;SDS011;47983;53.016;-2.260;2023-04-19T07:20:12;27.85;;;13.68;;
59306;SDS011;47983;53.016;-2.260;2023-04-19T07:22:40;31.88;;;14.80;;
59306;SDS011;47983;53.016;-2.260;2023-04-19T07:25:08;29.67;;;13.57;;
59306;SDS011;47983;53.016;-2.260;2023-04-19T07:27:36;29.75;;;14.80;;
59306;SDS011;47983;53.016;-2.260;2023-04-19T07:32:34;29.67;;;12.85;;
59306;SDS011;47983;53.016;-2.260;2023-04-19T07:35:02;32.95;;;14.02;;
59306;SDS011;47983;53.016;-2.260;2023-04-19T07:37:30;25.83;;;13.18;;
59306;SDS011;47983;53.016;-2.260;2023-04-19T07:39:57;38.47;;;13.65;;
59306;SDS011;47983;53.016;-2.260;2023-04-19T07:44:58;30.92;;;13.07;;
59306;SDS011;47983;53.016;-2.260;2023-04-19T07:47:26;33.03;;;13.65;;
59306;SDS011;47983;53.016;-2.260;2023-04-19T07:49:54;25.77;;;11.57;;
59306;SDS011;47983;53.016;-2.260;2023-04-19T07:52:22;24.05;;;12.50;;
59306;SDS011;47983;53.016;-2.260;2023-04-19T07:54:50;27.98;;;14.27;;
59306;SDS011;47983;53.016;-2.260;2023-04-19T07:57:18;26.15;;;12.50;;
59306;SDS011;47983;53.016;-2.260;2023-04-19T07:59:45;27.17;;;13.65;;
59306;SDS011;47983;53.016;-2.260;2023-04-19T08:02:13;27.73;;;13.85;;
59306;SDS011;47983;53.016;-2.260;2023-04-19T08:04:43;30.30;;;12.73;;
59306;SDS011;47983;53.016;-2.260;2023-04-19T08:07:14;30.17;;;13.27;;
59306;SDS011;47983;53.016;-2.260;2023-04-19T08:09:42;31.23;;;12.77;;
59306;SDS011;47983;53.016;-2.260;2023-04-19T08:12:10;22.60;;;11.93;;
59306;SDS011;47983;53.016;-2.260;2023-04-19T08:14:52;28.45;;;12.10;;
59306;SDS011;47983;53.016;-2.260;2023-04-19T08:17:37;31.90;;;12.90;;
59306;SDS011;47983;53.016;-2.260;2023-04-19T08:20:09;26.55;;;12.68;;
59306;SDS011;47983;53.016;-2.260;2023-04-19T08:22:40;29.45;;;11.88;;
59306;SDS011;47983;53.016;-2.260;2023-04-19T08:25:08;23.10;;;12.48;;
59306;SDS011;47983;53.016;-2.260;2023-04-19T08:27:36;22.83;;;12.57;;
59306;SDS011;47983;53.016;-2.260;2023-04-19T08:30:04;28.50;;;13.50;;
59306;SDS011;47983;53.016;-2.260;2023-04-19T08:32:33;23.88;;;13.00;;
59306;SDS011;47983;53.016;-2.260;2023-04-19T08:35:01;24.90;;;13.02;;
59306;SDS011;47983;53.016;-2.260;2023-04-19T08:37:30;24.10;;;11.52;;
59306;SDS011;47983;53.016;-2.260;2023-04-19T08:39:57;27.13;;;12.73;;
59306;SDS011;47983;53.016;-2.260;2023-04-19T08:42:27;30.42;;;13.50;;
59306;SDS011;47983;53.016;-2.260;2023-04-19T08:45:02;28.02;;;13.88;;
59306;SDS011;47983;53.016;-2.260;2023-04-19T08:47:35;29.02;;;13.65;;
59306;SDS011;47983;53.016;-2.260;2023-04-19T08:50:23;31.05;;;12.32;;
59306;SDS011;47983;53.016;-2.260;2023-04-19T08:53:04;29.35;;;12.82;;
59306;SDS011;47983;53.016;-2.260;2023-04-19T08:55:51;32.00;;;14.48;;
59306;SDS011;47983;53.016;-2.260;2023-04-19T08:58:27;34.28;;;15.73;;
59306;SDS011;47983;53.016;-2.260;2023-04-19T09:01:18;35.70;;;14.10;;
59306;SDS011;47983;53.016;-2.260;2023-04-19T09:04:04;27.60;;;13.38;;
59306;SDS011;47983;53.016;-2.260;2023-04-19T09:06:53;26.52;;;13.90;;
59306;SDS011;47983;53.016;-2.260;2023-04-19T09:09:27;27.00;;;14.32;;
59306;SDS011;47983;53.016;-2.260;2023-04-19T09:11:58;32.03;;;14.23;;
59306;SDS011;47983;53.016;-2.260;2023-04-19T09:14:26;21.25;;;12.05;;
59306;SDS011;47983;53.016;-2.260;2023-04-19T09:17:13;22.75;;;12.25;;
59306;SDS011;47983;53.016;-2.260;2023-04-19T09:19:45;26.85;;;11.55;;
59306;SDS011;47983;53.016;-2.260;2023-04-19T09:22:14;26.70;;;12.95;;
59306;SDS011;47983;53.016;-2.260;2023-04-19T09:24:42;24.30;;;11.18;;
59306;SDS011;47983;53.016;-2.260;2023-04-19T09:30:11;24.38;;;9.63;;
59306;SDS011;47983;53.016;-2.260;2023-04-19T09:32:56;22.83;;;11.27;;
59306;SDS011;47983;53.016;-2.260;2023-04-19T09:35:40;24.80;;;10.73;;
59306;SDS011;47983;53.016;-2.260;2023-04-19T09:38:14;20.13;;;10.48;;
59306;SDS011;47983;53.016;-2.260;2023-04-19T09:40:42;18.08;;;10.45;;
59306;SDS011;47983;53.016;-2.260;2023-04-19T09:43:10;22.80;;;10.48;;
59306;SDS011;47983;53.016;-2.260;2023-04-19T09:45:58;20.75;;;10.43;;
59306;SDS011;47983;53.016;-2.260;2023-04-19T09:48:26;18.90;;;9.55;;
59306;SDS011;47983;53.016;-2.260;2023-04-19T09:50:55;24.70;;;10.68;;
59306;SDS011;47983;53.016;-2.260;2023-04-19T09:53:30;20.85;;;10.43;;
59306;SDS011;47983;53.016;-2.260;2023-04-19T09:56:01;19.35;;;10.82;;
59306;SDS011;47983;53.016;-2.260;2023-04-19T09:58:31;26.13;;;13.38;;
59306;SDS011;47983;53.016;-2.260;2023-04-19T10:01:02;19.55;;;10.90;;
59306;SDS011;47983;53.016;-2.260;2023-04-19T10:03:41;18.13;;;9.80;;
59306;SDS011;47983;53.016;-2.260;2023-04-19T10:06:15;18.23;;;10.70;;
59306;SDS011;47983;53.016;-2.260;2023-04-19T10:08:48;21.67;;;10.13;;
59306;SDS011;47983;53.016;-2.260;2023-04-19T10:11:17;20.63;;;10.57;;
59306;SDS011;47983;53.016;-2.260;2023-04-19T10:13:48;16.38;;;10.18;;
59306;SDS011;47983;53.016;-2.260;2023-04-19T10:16:17;24.90;;;9.90;;
59306;SDS011;47983;53.016;-2.260;2023-04-19T10:18:49;18.73;;;9.55;;
59306;SDS011;47983;53.016;-2.260;2023-04-19T10:21:18;22.65;;;9.18;;
59306;SDS011;47983;53.016;-2.260;2023-04-19T10:23:47;14.43;;;9.00;;
59306;SDS011;47983;53.016;-2.260;2023-04-19T10:26:15;22.98;;;10.15;;
59306;SDS011;47983;53.016;-2.260;2023-04-19T10:28:42;18.17;;;8.52;;
59306;SDS011;47983;53.016;-2.260;2023-04-19T10:31:10;25.00;;;9.25;;
59306;SDS011;47983;53.016;-2.260;2023-04-19T10:33:39;20.38;;;8.57;;
59306;SDS011;47983;53.016;-2.260;2023-04-19T10:36:07;16.85;;;9.68;;
59306;SDS011;47983;53.016;-2.260;2023-04-19T10:38:40;14.40;;;8.10;;
59306;SDS011;47983;53.016;-2.260;2023-04-19T10:41:11;17.80;;;8.48;;
59306;SDS011;47983;53.016;-2.260;2023-04-19T10:48:50;24.17;;;9.40;;
59306;SDS011;47983;53.016;-2.260;2023-04-19T10:54:06;14.00;;;8.52;;
59306;SDS011;47983;53.016;-2.260;2023-04-19T10:59:22;20.10;;;8.52;;
59306;SDS011;47983;53.016;-2.260;2023-04-19T11:01:56;18.27;;;8.32;;
59306;SDS011;47983;53.016;-2.260;2023-04-19T11:06:57;13.02;;;7.55;;
59306;SDS011;47983;53.016;-2.260;2023-04-19T11:09:33;18.95;;;8.23;;
59306;SDS011;47983;53.016;-2.260;2023-04-19T11:12:05;16.42;;;8.85;;
59306;SDS011;47983;53.016;-2.260;2023-04-19T11:17:15;19.38;;;8.52;;
59306;SDS011;47983;53.016;-2.260;2023-04-19T11:19:51;20.08;;;9.38;;
59306;SDS011;47983;53.016;-2.260;2023-04-19T11:25:05;27.90;;;9.35;;
59306;SDS011;47983;53.016;-2.260;2023-04-19T11:27:39;14.85;;;8.15;;
59306;SDS011;47983;53.016;-2.260;2023-04-19T11:30:16;21.45;;;9.27;;
59306;SDS011;47983;53.016;-2.260;2023-04-19T11:32:47;17.35;;;8.63;;
59306;SDS011;47983;53.016;-2.260;2023-04-19T11:35:21;21.13;;;8.90;;
59306;SDS011;47983;53.016;-2.260;2023-04-19T11:37:52;18.95;;;9.07;;
59306;SDS011;47983;53.016;-2.260;2023-04-19T11:40:22;18.40;;;8.98;;
59306;SDS011;47983;53.016;-2.260;2023-04-19T11:42:56;15.90;;;9.35;;
59306;SDS011;47983;53.016;-2.260;2023-04-19T11:45:32;16.33;;;8.77;;
59306;SDS011;47983;53.016;-2.260;2023-04-19T11:48:07;19.50;;;8.95;;
59306;SDS011;47983;53.016;-2.260;2023-04-19T11:50:43;19.25;;;8.15;;
59306;SDS011;47983;53.016;-2.260;2023-04-19T11:53:15;19.33;;;9.90;;
59306;SDS011;47983;53.016;-2.260;2023-04-19T11:55:48;17.33;;;8.40;;
59306;SDS011;47983;53.016;-2.260;2023-04-19T12:01:20;17.65;;;7.95;;
59306;SDS011;47983;53.016;-2.260;2023-04-19T12:03:49;18.23;;;8.65;;
59306;SDS011;47983;53.016;-2.260;2023-04-19T12:06:21;16.20;;;8.18;;
59306;SDS011;47983;53.016;-2.260;2023-04-19T12:08:51;16.33;;;8.27;;
59306;SDS011;47983;53.016;-2.260;2023-04-19T12:11:21;22.45;;;7.70;;
59306;SDS011;47983;53.016;-2.260;2023-04-19T12:14:07;16.67;;;7.75;;
59306;SDS011;47983;53.016;-2.260;2023-04-19T12:16:39;13.88;;;6.47;;
59306;SDS011;47983;53.016;-2.260;2023-04-19T12:19:11;14.38;;;8.05;;
59306;SDS011;47983;53.016;-2.260;2023-04-19T12:21:46;15.77;;;6.43;;
59306;SDS011;47983;53.016;-2.260;2023-04-19T12:24:16;15.20;;;7.65;;
59306;SDS011;47983;53.016;-2.260;2023-04-19T12:26:53;17.88;;;7.80;;
59306;SDS011;47983;53.016;-2.260;2023-04-19T12:29:23;21.15;;;7.53;;
59306;SDS011;47983;53.016;-2.260;2023-04-19T12:31:50;14.63;;;6.90;;
59306;SDS011;47983;53.016;-2.260;2023-04-19T12:34:19;13.85;;;7.07;;
59306;SDS011;47983;53.016;-2.260;2023-04-19T12:36:46;12.15;;;5.88;;
59306;SDS011;47983;53.016;-2.260;2023-04-19T12:39:14;16.30;;;6.47;;
59306;SDS011;47983;53.016;-2.260;2023-04-19T12:41:42;19.83;;;6.60;;
59306;SDS011;47983;53.016;-2.260;2023-04-19T12:44:10;11.10;;;6.47;;
59306;SDS011;47983;53.016;-2.260;2023-04-19T12:46:37;13.05;;;5.32;;
59306;SDS011;47983;53.016;-2.260;2023-04-19T12:49:05;16.70;;;6.75;;
59306;SDS011;47983;53.016;-2.260;2023-04-19T12:51:33;16.50;;;7.03;;
59306;SDS011;47983;53.016;-2.260;2023-04-19T12:56:33;16.70;;;5.75;;
59306;SDS011;47983;53.016;-2.260;2023-04-19T12:59:01;11.10;;;5.57;;
59306;SDS011;47983;53.016;-2.260;2023-04-19T13:01:29;13.23;;;6.18;;
59306;SDS011;47983;53.016;-2.260;2023-04-19T13:04:01;18.95;;;6.72;;
59306;SDS011;47983;53.016;-2.260;2023-04-19T13:06:29;11.80;;;5.53;;
59306;SDS011;47983;53.016;-2.260;2023-04-19T13:08:57;13.13;;;6.43;;
59306;SDS011;47983;53.016;-2.260;2023-04-19T13:11:27;19.25;;;6.57;;
59306;SDS011;47983;53.016;-2.260;2023-04-19T13:13:58;13.65;;;5.47;;
59306;SDS011;47983;53.016;-2.260;2023-04-19T13:16:26;9.85;;;5.50;;
59306;SDS011;47983;53.016;-2.260;2023-04-19T13:18:54;11.32;;;4.97;;
59306;SDS011;47983;53.016;-2.260;2023-04-19T13:21:22;12.20;;;5.20;;
59306;SDS011;47983;53.016;-2.260;2023-04-19T13:23:52;13.75;;;5.68;;
59306;SDS011;47983;53.016;-2.260;2023-04-19T13:26:20;12.77;;;5.55;;
59306;SDS011;47983;53.016;-2.260;2023-04-19T13:28:48;11.70;;;4.75;;
59306;SDS011;47983;53.016;-2.260;2023-04-19T13:31:15;11.40;;;5.20;;
59306;SDS011;47983;53.016;-2.260;2023-04-19T13:33:43;8.70;;;4.90;;
59306;SDS011;47983;53.016;-2.260;2023-04-19T13:36:12;11.35;;;5.03;;
59306;SDS011;47983;53.016;-2.260;2023-04-19T13:38:39;19.52;;;6.07;;
59306;SDS011;47983;53.016;-2.260;2023-04-19T13:41:07;10.25;;;4.97;;
59306;SDS011;47983;53.016;-2.260;2023-04-19T13:43:35;10.05;;;3.83;;
59306;SDS011;47983;53.016;-2.260;2023-04-19T13:46:03;17.52;;;5.30;;
59306;SDS011;47983;53.016;-2.260;2023-04-19T13:48:31;9.10;;;4.72;;
59306;SDS011;47983;53.016;-2.260;2023-04-19T13:50:59;6.93;;;4.35;;
59306;SDS011;47983;53.016;-2.260;2023-04-19T13:53:27;10.98;;;5.10;;
59306;SDS011;47983;53.016;-2.260;2023-04-19T13:55:55;11.23;;;4.47;;
59306;SDS011;47983;53.016;-2.260;2023-04-19T13:58:23;10.82;;;4.43;;
59306;SDS011;47983;53.016;-2.260;2023-04-19T14:00:51;16.42;;;4.80;;
59306;SDS011;47983;53.016;-2.260;2023-04-19T14:03:20;18.75;;;4.60;;
59306;SDS011;47983;53.016;-2.260;2023-04-19T14:05:49;10.32;;;4.70;;
59306;SDS011;47983;53.016;-2.260;2023-04-19T14:08:17;12.55;;;5.25;;
59306;SDS011;47983;53.016;-2.260;2023-04-19T14:10:44;10.15;;;4.07;;
59306;SDS011;47983;53.016;-2.260;2023-04-19T14:13:12;11.20;;;4.55;;
59306;SDS011;47983;53.016;-2.260;2023-04-19T14:15:40;8.77;;;4.13;;
59306;SDS011;47983;53.016;-2.260;2023-04-19T14:18:08;8.82;;;3.75;;
59306;SDS011;47983;53.016;-2.260;2023-04-19T14:20:36;9.73;;;4.13;;
59306;SDS011;47983;53.016;-2.260;2023-04-19T14:23:06;10.90;;;4.43;;
59306;SDS011;47983;53.016;-2.260;2023-04-19T14:25:34;11.52;;;4.03;;
59306;SDS011;47983;53.016;-2.260;2023-04-19T14:28:05;16.52;;;4.53;;
59306;SDS011;47983;53.016;-2.260;2023-04-19T14:30:33;11.65;;;3.60;;
59306;SDS011;47983;53.016;-2.260;2023-04-19T14:33:02;12.32;;;3.80;;
59306;SDS011;47983;53.016;-2.260;2023-04-19T14:35:30;8.25;;;3.97;;
59306;SDS011;47983;53.016;-2.260;2023-04-19T14:37:58;9.52;;;3.78;;
59306;SDS011;47983;53.016;-2.260;2023-04-19T14:40:26;11.55;;;3.75;;
59306;SDS011;47983;53.016;-2.260;2023-04-19T14:42:55;6.03;;;3.10;;
59306;SDS011;47983;53.016;-2.260;2023-04-19T14:45:23;7.53;;;3.30;;
59306;SDS011;47983;53.016;-2.260;2023-04-19T14:47:51;9.32;;;2.78;;
59306;SDS011;47983;53.016;-2.260;2023-04-19T14:50:19;10.07;;;2.53;;
59306;SDS011;47983;53.016;-2.260;2023-04-19T14:52:48;10.80;;;3.20;;
59306;SDS011;47983;53.016;-2.260;2023-04-19T14:55:16;10.43;;;2.90;;
59306;SDS011;47983;53.016;-2.260;2023-04-19T14:57:44;7.82;;;3.45;;
59306;SDS011;47983;53.016;-2.260;2023-04-19T15:00:12;8.25;;;2.50;;
59306;SDS011;47983;53.016;-2.260;2023-04-19T15:02:42;6.30;;;2.03;;
59306;SDS011;47983;53.016;-2.260;2023-04-19T15:05:10;11.43;;;2.38;;
59306;SDS011;47983;53.016;-2.260;2023-04-19T15:07:39;5.18;;;2.00;;